Aeroporto :
LOGIN :

Iscrizione | Disclaimer

   EN    FR    IT 

 










Sommario :    VFR   VFR Marginale   IFR   IFR Intensivo   IFR Molto Intensivo
Visibilità : 
Base nubi : 
>= 8 km
>= 3000ft
5 / 8 km
1000 / 3000 ft
1500m / 5 km
500 / 1000 ft
800 / 1500m
200 / 500 ft
< 800m
< 200 ft
Simboli :   Temporali  Nebbia  Neve Forte  Precipitazioni Forti  Vento > 20 kt
SIGMETs :   Varie  Temporali  Ghiacco  Turbolenza  Onda orograficha  Ceneri Vulcaniche






- Altitudine del aeroporto : 49 ft
- Codice IATA : SEN


EGMC - Southend

ULTIMO METAR :
  • 080720Z 00000KT 0200 R23/0200U FZFG NSC M04/M05 Q1036

METARs OBSOLETI :
  • 080650Z 00000KT 0200 R23/0100 FZFG NSC M04/M05 Q1037
  • 080620Z 00000KT 0500 R23/0275 FZFG NSC M05/M06 Q1037
  • 080550Z 00000KT 0900 R23/0175 FZFG NSC M05/M06 Q1037
  • 080520Z 00000KT 1000 R23/0500 BR BCFG NSC M05/M06 Q1037
  • 080450Z 00000KT 2500 1000W R23/0500 BR BCFG NSC M05/M06 Q1037

TAF TAF EGMC
Valido dal 08 a 06 ore il 08 a 15 ore UTC


080501Z 0806/0815 VRB01KT 2000 BR NSC
TEMPO 0806/0810 0300 FZFG VV///
BECMG 0809/0812 CAVOK



MetMap, La meteo Aeronautica in un colpo d'occhio ! - Copyright ORBIFLY Dicembre 2007 - Disclaimer

ORBIFLY MET'MAP TEAM :

Programmazione e sviluppo : Alexandra Zaïnal
Concezione : Baudouin d'Aumeries
Supporto tecnico e logistico : Manuel Goepfert
Aiuto : Marc-Olivier Méhu
Aiuto per la traduzione : Arnaldo La Scala




FONTI E CREDITI :

   NOAA